createdAt,value
2018-05-15T00:00:22.864Z,99.66
2018-05-15T00:02:15.719Z,98.61
2018-05-15T00:03:15.634Z,99.37
2018-05-15T00:05:08.365Z,97.56
2018-05-15T00:06:08.273Z,98.22
2018-05-15T00:08:01.034Z,96.51
2018-05-15T00:09:00.994Z,98.03
2018-05-15T00:10:54.275Z,98.42
2018-05-15T00:11:53.656Z,97.75
2018-05-15T00:13:46.555Z,97.75
2018-05-15T00:14:46.413Z,97.66
2018-05-15T00:16:39.201Z,96.32
2018-05-15T00:17:39.066Z,95.61
2018-05-15T00:19:31.986Z,95.03
2018-05-15T00:20:31.728Z,94.08
2018-05-15T00:22:25.060Z,93.98
2018-05-15T00:23:24.950Z,95.12
2018-05-15T00:25:17.727Z,94.56
2018-05-15T00:26:17.593Z,96.75
2018-05-15T00:28:10.364Z,96.56
2018-05-15T00:29:10.256Z,95.70
2018-05-15T00:31:03.122Z,95.89
2018-05-15T00:32:03.016Z,93.98
2018-05-15T00:33:55.846Z,94.93
2018-05-15T00:34:55.660Z,94.74
2018-05-15T00:36:49.501Z,92.36
2018-05-15T00:37:48.804Z,91.41
2018-05-15T00:39:41.542Z,91.03
2018-05-15T00:40:41.454Z,91.50
2018-05-15T00:42:34.306Z,90.74
2018-05-15T00:43:34.235Z,91.60
2018-05-15T00:45:26.961Z,91.79
2018-05-15T00:46:26.853Z,91.60
2018-05-15T00:48:19.603Z,92.27
2018-05-15T00:49:19.497Z,92.74
2018-05-15T00:51:12.342Z,91.60
2018-05-15T00:52:12.242Z,90.74
2018-05-15T00:54:05.093Z,91.79
2018-05-15T00:55:04.993Z,90.36
2018-05-15T00:56:57.735Z,90.74
2018-05-15T00:57:57.691Z,90.36
2018-05-15T00:59:50.594Z,90.45
2018-05-15T01:00:50.506Z,88.60
2018-05-15T01:02:43.237Z,88.84
2018-05-15T01:03:43.133Z,89.12
2018-05-15T01:05:36.429Z,88.89
2018-05-15T01:06:36.320Z,88.41
2018-05-15T01:08:29.051Z,88.12
2018-05-15T01:09:28.957Z,87.46
2018-05-15T01:11:21.793Z,86.60
2018-05-15T01:12:21.704Z,86.88
2018-05-15T01:14:14.461Z,88.31
2018-05-15T01:15:14.356Z,86.32
2018-05-15T01:17:07.188Z,86.32
2018-05-15T01:18:07.101Z,86.60
2018-05-15T01:19:59.955Z,87.27
2018-05-15T01:20:59.842Z,87.74
2018-05-15T01:22:52.583Z,88.31
2018-05-15T01:23:52.510Z,87.84
2018-05-15T01:25:45.242Z,88.03
2018-05-15T01:26:45.130Z,88.12
2018-05-15T01:28:37.880Z,87.84
2018-05-15T01:29:37.776Z,86.51
2018-05-15T01:31:30.547Z,84.12
2018-05-15T01:32:30.441Z,83.36
2018-05-15T01:34:23.167Z,83.84
2018-05-15T01:35:23.077Z,84.88
2018-05-15T01:37:16.356Z,82.89
2018-05-15T01:38:16.235Z,82.50
2018-05-15T01:40:08.986Z,82.75
2018-05-15T01:41:08.916Z,82.89
2018-05-15T01:43:01.650Z,83.26
2018-05-15T01:44:01.544Z,83.45
2018-05-15T01:45:54.443Z,82.79
2018-05-15T01:46:54.182Z,83.07
2018-05-15T01:48:47.032Z,83.07
2018-05-15T01:49:46.924Z,81.51
2018-05-15T01:51:39.701Z,83.70
2018-05-15T01:52:39.570Z,83.22
2018-05-15T01:54:32.419Z,83.65
2018-05-15T01:55:32.323Z,82.65
2018-05-15T01:57:25.077Z,81.51
2018-05-15T01:58:24.975Z,82.18
2018-05-15T02:00:17.857Z,81.03
2018-05-15T02:01:17.761Z,79.60
2018-05-15T02:03:10.480Z,79.03
2018-05-15T02:04:10.409Z,77.61
2018-05-15T02:06:03.265Z,76.37
2018-05-15T02:07:03.061Z,75.99
2018-05-15T02:08:55.880Z,77.70
2018-05-15T02:09:55.671Z,77.03
2018-05-15T02:11:48.503Z,77.22
2018-05-15T02:12:48.423Z,77.51
2018-05-15T02:14:41.220Z,76.18
2018-05-15T02:15:41.066Z,75.70
2018-05-15T02:17:33.808Z,75.79
2018-05-15T02:18:33.726Z,75.51
2018-05-15T02:20:26.976Z,75.32
2018-05-15T02:21:26.859Z,75.70
2018-05-15T02:23:19.657Z,74.18
2018-05-15T02:24:19.504Z,75.23
2018-05-15T02:26:12.373Z,76.27
2018-05-15T02:27:12.260Z,76.08
2018-05-15T02:29:05.042Z,75.70
2018-05-15T02:30:04.944Z,75.51
2018-05-15T02:31:57.645Z,75.51
2018-05-15T02:32:57.553Z,74.37
2018-05-15T02:34:50.434Z,74.43
2018-05-15T02:35:50.207Z,73.38
2018-05-15T02:37:42.940Z,74.43
2018-05-15T02:38:42.879Z,73.57
2018-05-15T02:40:36.266Z,71.61
2018-05-15T02:41:35.498Z,73.32
2018-05-15T02:43:28.273Z,73.22
2018-05-15T02:44:28.154Z,73.19
2018-05-15T02:46:21.531Z,73.38
2018-05-15T02:47:21.310Z,72.24
2018-05-15T02:49:14.148Z,73.95
2018-05-15T02:50:14.063Z,72.71
2018-05-15T02:52:07.450Z,72.52
2018-05-15T02:53:06.709Z,72.05
2018-05-15T02:54:59.505Z,71.19
2018-05-15T02:55:59.368Z,72.33
2018-05-15T02:57:52.092Z,72.42
2018-05-15T02:58:51.997Z,71.67
2018-05-15T03:00:44.855Z,72.81
2018-05-15T03:01:44.668Z,72.42
2018-05-15T03:03:37.400Z,71.38
2018-05-15T03:04:37.289Z,71.95
2018-05-15T03:06:30.056Z,71.38
2018-05-15T03:07:29.931Z,71.95
2018-05-15T03:09:23.198Z,70.72
2018-05-15T03:10:23.097Z,70.43
2018-05-15T03:12:16.445Z,71.19
2018-05-15T03:13:15.848Z,70.62
2018-05-15T03:15:08.596Z,70.14
2018-05-15T03:16:08.506Z,70.90
2018-05-15T03:18:01.297Z,72.05
2018-05-15T03:19:01.184Z,72.33
2018-05-15T03:20:53.878Z,71.09
2018-05-15T03:21:53.792Z,71.67
2018-05-15T03:23:46.646Z,71.09
2018-05-15T03:24:46.539Z,71.00
2018-05-15T03:26:39.273Z,69.29
2018-05-15T03:27:39.179Z,68.81
2018-05-15T03:29:31.939Z,69.10
2018-05-15T03:30:31.830Z,69.10
2018-05-15T03:32:24.697Z,68.71
2018-05-15T03:33:24.580Z,68.33
2018-05-15T03:35:17.322Z,68.33
2018-05-15T03:36:17.233Z,67.95
2018-05-15T03:38:10.153Z,67.29
2018-05-15T03:39:09.988Z,67.57
2018-05-15T03:41:02.834Z,66.91
2018-05-15T03:42:02.727Z,67.29
2018-05-15T03:43:55.522Z,67.86
2018-05-15T03:44:55.376Z,68.15
2018-05-15T03:46:48.262Z,68.71
2018-05-15T03:47:48.125Z,68.90
2018-05-15T03:49:40.979Z,69.19
2018-05-15T03:50:40.770Z,69.10
2018-05-15T03:52:34.538Z,69.76
2018-05-15T03:53:34.444Z,69.67
2018-05-15T03:55:27.242Z,69.10
2018-05-15T03:56:27.081Z,69.10
2018-05-15T03:58:19.846Z,68.81
2018-05-15T03:59:19.749Z,68.75
2018-05-15T04:01:12.625Z,67.51
2018-05-15T04:02:12.482Z,66.94
2018-05-15T04:04:06.162Z,67.89
2018-05-15T04:05:06.052Z,68.56
2018-05-15T04:06:58.802Z,67.61
2018-05-15T04:07:58.720Z,67.61
2018-05-15T04:09:51.571Z,67.80
2018-05-15T04:10:51.487Z,67.51
2018-05-15T04:12:44.324Z,67.70
2018-05-15T04:13:44.124Z,68.84
2018-05-15T04:15:36.946Z,70.59
2018-05-15T04:16:36.866Z,71.36
2018-05-15T04:18:29.616Z,71.36
2018-05-15T04:19:29.513Z,71.26
2018-05-15T04:21:22.270Z,72.88
2018-05-15T04:22:22.144Z,73.17
2018-05-15T04:24:15.488Z,72.60
2018-05-15T04:25:14.816Z,71.45
2018-05-15T04:27:07.556Z,70.50
2018-05-15T04:28:07.448Z,71.07
2018-05-15T04:30:00.195Z,72.31
2018-05-15T04:31:00.083Z,73.36
2018-05-15T04:32:52.999Z,71.64
2018-05-15T04:33:52.853Z,72.50
2018-05-15T04:35:47.154Z,73.74
2018-05-15T04:36:47.044Z,74.60
2018-05-15T04:38:40.376Z,74.60
2018-05-15T04:39:39.686Z,72.97
2018-05-15T04:41:32.479Z,72.21
2018-05-15T04:42:32.327Z,71.64
2018-05-15T04:44:25.158Z,75.16
2018-05-15T04:45:25.052Z,75.64
2018-05-15T04:47:17.951Z,72.50
2018-05-15T04:48:17.896Z,70.97
2018-05-15T04:50:10.591Z,74.21
2018-05-15T04:51:10.456Z,73.45
2018-05-15T04:53:03.350Z,75.30
2018-05-15T04:54:03.214Z,76.16
2018-05-15T04:55:55.956Z,76.92
2018-05-15T04:56:55.858Z,76.06
2018-05-15T04:58:49.213Z,71.01
2018-05-15T04:59:49.022Z,72.06
2018-05-15T05:01:42.784Z,75.87
2018-05-15T05:02:42.687Z,75.96
2018-05-15T05:04:35.564Z,74.82
2018-05-15T05:05:35.456Z,76.64
2018-05-15T05:07:28.208Z,73.77
2018-05-15T05:08:28.083Z,76.29
2018-05-15T05:10:20.954Z,78.01
2018-05-15T05:11:20.832Z,77.44
2018-05-15T05:13:13.601Z,77.15
2018-05-15T05:14:13.474Z,77.53
2018-05-15T05:16:06.357Z,77.34
2018-05-15T05:17:06.129Z,78.30
2018-05-15T05:18:58.900Z,80.01
2018-05-15T05:19:58.769Z,82.01
2018-05-15T05:21:51.545Z,83.73
2018-05-15T05:22:51.445Z,85.45
2018-05-15T05:24:44.302Z,87.78
2018-05-15T05:25:44.168Z,92.07
2018-05-15T05:27:36.911Z,94.74
2018-05-15T05:28:36.811Z,93.98
2018-05-15T05:30:29.695Z,96.84
2018-05-15T05:31:29.595Z,98.56
2018-05-15T05:33:22.890Z,99.99
2018-05-15T05:34:22.723Z,99.99
2018-05-15T05:36:16.011Z,99.99
2018-05-15T05:37:15.892Z,99.99
2018-05-15T05:39:09.138Z,99.99
2018-05-15T05:40:09.130Z,99.99
2018-05-15T05:42:01.806Z,99.99
2018-05-15T05:43:01.688Z,99.99
2018-05-15T05:44:54.542Z,99.99
2018-05-15T05:45:54.455Z,99.99
2018-05-15T05:47:47.344Z,99.99
2018-05-15T05:48:47.204Z,99.99
2018-05-15T05:50:40.067Z,99.99
2018-05-15T05:51:39.972Z,99.99
2018-05-15T05:53:32.818Z,99.99
2018-05-15T05:54:32.717Z,99.99
2018-05-15T05:56:25.560Z,99.99
2018-05-15T05:57:25.461Z,99.99
2018-05-15T05:59:18.299Z,99.99
2018-05-15T06:00:18.187Z,99.99
2018-05-15T06:02:10.937Z,99.99
2018-05-15T06:03:10.839Z,99.99
2018-05-15T06:05:03.788Z,99.99
2018-05-15T06:06:03.711Z,99.99
2018-05-15T06:07:56.471Z,99.99
2018-05-15T06:08:56.353Z,99.99
2018-05-15T06:10:49.097Z,99.99
2018-05-15T06:11:48.988Z,99.99
2018-05-15T06:13:41.749Z,99.99
2018-05-15T06:14:41.633Z,99.99
2018-05-15T06:16:34.374Z,99.99
2018-05-15T06:17:34.282Z,99.99
2018-05-15T06:19:27.038Z,99.99
2018-05-15T06:20:26.931Z,99.99
2018-05-15T06:22:19.800Z,99.99
2018-05-15T06:23:19.685Z,99.99
2018-05-15T06:25:12.547Z,99.99
2018-05-15T06:26:12.435Z,99.99
2018-05-15T06:28:05.165Z,99.99
2018-05-15T06:29:05.070Z,99.99
2018-05-15T06:30:57.930Z,99.99
2018-05-15T06:31:57.835Z,99.99
2018-05-15T06:33:50.679Z,99.99
2018-05-15T06:34:50.631Z,99.99
2018-05-15T06:36:43.431Z,99.99
2018-05-15T06:37:43.320Z,99.99
2018-05-15T06:39:36.093Z,99.99
2018-05-15T06:40:35.977Z,99.99
2018-05-15T06:42:30.318Z,99.99
2018-05-15T06:43:30.167Z,99.99
2018-05-15T06:45:23.026Z,99.99
2018-05-15T06:46:23.410Z,99.99
2018-05-15T06:48:15.637Z,99.99
2018-05-15T06:49:15.553Z,99.99
2018-05-15T06:51:08.405Z,99.99
2018-05-15T06:52:08.290Z,99.99
2018-05-15T06:54:01.049Z,99.99
2018-05-15T06:55:00.963Z,99.99
2018-05-15T06:56:54.319Z,99.99
2018-05-15T06:57:54.203Z,99.99
2018-05-15T06:59:46.976Z,99.99
2018-05-15T07:00:46.862Z,99.99
2018-05-15T07:02:40.125Z,99.99
2018-05-15T07:03:40.016Z,99.99
2018-05-15T07:05:32.876Z,99.99
2018-05-15T07:06:32.763Z,99.99
2018-05-15T07:08:25.621Z,99.15
2018-05-15T07:09:25.518Z,97.71
2018-05-15T07:11:18.461Z,98.47
2018-05-15T07:12:18.361Z,99.99
2018-05-15T07:14:11.356Z,99.01
2018-05-15T07:15:11.202Z,97.76
2018-05-15T07:17:03.954Z,96.61
2018-05-15T07:18:03.880Z,92.30
2018-05-15T07:19:56.614Z,93.63
2018-05-15T07:20:56.544Z,91.77
2018-05-15T07:22:49.473Z,92.15
2018-05-15T07:23:49.372Z,91.77
2018-05-15T07:25:42.240Z,92.44
2018-05-15T07:26:42.111Z,89.37
2018-05-15T07:28:34.869Z,86.88
2018-05-15T07:29:34.754Z,86.97
2018-05-15T07:31:27.607Z,93.59
2018-05-15T07:32:27.504Z,94.69
2018-05-15T07:34:20.386Z,88.45
2018-05-15T07:35:20.281Z,86.63
2018-05-15T07:37:13.137Z,81.54
2018-05-15T07:38:13.029Z,83.85
2018-05-15T07:40:05.864Z,82.60
2018-05-15T07:41:05.751Z,85.67
2018-05-15T07:42:58.618Z,83.47
2018-05-15T07:43:58.506Z,82.70
2018-05-15T07:45:51.380Z,80.05
2018-05-15T07:46:51.270Z,77.13
2018-05-15T07:48:44.113Z,75.73
2018-05-15T07:49:43.997Z,77.84
2018-05-15T07:51:36.872Z,78.42
2018-05-15T07:52:36.783Z,76.02
2018-05-15T07:54:29.604Z,77.46
2018-05-15T07:55:29.502Z,77.75
2018-05-15T07:57:22.357Z,77.84
2018-05-15T07:58:22.271Z,77.56
2018-05-15T08:00:15.122Z,74.39
2018-05-15T08:01:15.006Z,74.81
2018-05-15T08:03:07.862Z,73.18
2018-05-15T08:04:07.773Z,74.90
2018-05-15T08:06:00.627Z,71.83
2018-05-15T08:07:00.498Z,73.94
2018-05-15T08:08:53.372Z,72.64
2018-05-15T08:09:53.245Z,72.31
2018-05-15T08:11:46.120Z,74.37
2018-05-15T08:12:45.999Z,73.11
2018-05-15T08:14:39.065Z,70.84
2018-05-15T08:15:38.746Z,71.91
2018-05-15T08:17:32.025Z,68.06
2018-05-15T08:18:31.908Z,67.00
2018-05-15T08:20:24.767Z,68.54
2018-05-15T08:21:24.664Z,70.65
2018-05-15T08:23:17.542Z,68.67
2018-05-15T08:24:17.406Z,68.57
2018-05-15T08:26:10.671Z,68.44
2018-05-15T08:27:10.575Z,67.77
2018-05-15T08:29:03.468Z,69.60
2018-05-15T08:30:03.356Z,67.03
2018-05-15T08:31:56.161Z,65.69
2018-05-15T08:32:56.073Z,64.63
2018-05-15T08:34:48.944Z,64.15
2018-05-15T08:35:48.835Z,62.58
2018-05-15T08:37:41.735Z,64.79
2018-05-15T08:38:41.583Z,63.64
2018-05-15T08:40:34.431Z,64.12
2018-05-15T08:41:34.315Z,65.20
2018-05-15T08:43:27.156Z,63.06
2018-05-15T08:44:27.069Z,60.94
2018-05-15T08:46:19.922Z,61.61
2018-05-15T08:47:19.944Z,59.72
2018-05-15T08:49:12.991Z,62.32
2018-05-15T08:50:12.561Z,61.94
2018-05-15T08:52:05.814Z,60.72
2018-05-15T08:53:05.744Z,60.81
2018-05-15T08:54:58.600Z,60.69
2018-05-15T08:55:58.500Z,60.59
2018-05-15T08:57:51.341Z,60.14
2018-05-15T08:58:51.233Z,60.42
2018-05-15T09:00:44.107Z,60.33
2018-05-15T09:01:43.969Z,59.88
2018-05-15T09:03:37.339Z,61.22
2018-05-15T09:04:37.234Z,60.39
2018-05-15T09:06:30.132Z,58.17
2018-05-15T09:07:30.019Z,58.95
2018-05-15T09:09:22.840Z,58.34
2018-05-15T09:10:22.754Z,57.86
2018-05-15T09:12:15.601Z,61.22
2018-05-15T09:13:15.485Z,60.00
2018-05-15T09:15:08.329Z,59.88
2018-05-15T09:16:08.237Z,59.97
2018-05-15T09:18:01.091Z,59.81
2018-05-15T09:19:00.982Z,59.40
2018-05-15T09:20:53.824Z,60.07
2018-05-15T09:21:53.748Z,62.09
2018-05-15T09:23:46.604Z,61.25
2018-05-15T09:24:46.484Z,61.25
2018-05-15T09:26:39.338Z,60.68
2018-05-15T09:27:39.239Z,59.81
2018-05-15T09:29:32.606Z,61.45
2018-05-15T09:30:32.509Z,62.80
2018-05-15T09:32:25.365Z,62.70
2018-05-15T09:33:25.247Z,63.85
2018-05-15T09:35:18.087Z,64.31
2018-05-15T09:36:18.036Z,63.15
2018-05-15T09:38:10.851Z,64.63
2018-05-15T09:39:10.752Z,64.15
2018-05-15T09:41:03.578Z,65.11
2018-05-15T09:42:03.509Z,65.85
2018-05-15T09:43:56.368Z,64.59
2018-05-15T09:44:56.253Z,64.73
2018-05-15T09:46:49.149Z,65.50
2018-05-15T09:47:49.007Z,64.73
2018-05-15T09:49:41.847Z,66.94
2018-05-15T09:50:41.742Z,65.27
2018-05-15T09:52:35.099Z,67.71
2018-05-15T09:53:34.492Z,67.52
2018-05-15T09:55:27.344Z,66.17
2018-05-15T09:56:27.242Z,65.40
2018-05-15T09:58:20.102Z,64.76
2018-05-15T09:59:20.007Z,64.86
2018-05-15T10:01:12.970Z,63.12
2018-05-15T10:02:13.024Z,64.47
2018-05-15T10:04:08.673Z,59.07
2018-05-15T10:05:05.506Z,60.55
2018-05-15T10:06:58.360Z,58.23
2018-05-15T10:07:58.355Z,58.33
2018-05-15T10:09:51.122Z,56.21
2018-05-15T10:10:50.992Z,56.30
2018-05-15T10:12:44.255Z,53.83
2018-05-15T10:13:44.190Z,57.01
2018-05-15T10:15:36.999Z,57.10
2018-05-15T10:16:36.898Z,57.01
2018-05-15T10:18:29.740Z,54.79
2018-05-15T10:19:29.670Z,53.05
2018-05-15T10:21:22.618Z,54.09
2018-05-15T10:22:22.402Z,55.44
2018-05-15T10:24:15.235Z,56.88
2018-05-15T10:25:15.163Z,55.70
2018-05-15T10:27:08.013Z,54.44
2018-05-15T10:28:07.937Z,54.44
2018-05-15T10:30:00.774Z,55.60
2018-05-15T10:31:00.721Z,56.66
2018-05-15T10:32:53.537Z,55.22
2018-05-15T10:33:53.414Z,55.99
2018-05-15T10:35:46.239Z,55.89
2018-05-15T10:36:46.236Z,56.85
2018-05-15T10:38:39.017Z,55.31
2018-05-15T10:39:38.893Z,55.60
2018-05-15T10:41:31.753Z,55.00
2018-05-15T10:42:31.652Z,55.67
2018-05-15T10:44:24.635Z,55.60
2018-05-15T10:45:24.404Z,56.95
2018-05-15T10:47:17.243Z,56.98
2018-05-15T10:48:17.156Z,57.07
2018-05-15T10:50:09.999Z,55.66
2018-05-15T10:51:09.903Z,55.68
2018-05-15T10:53:02.771Z,53.08
2018-05-15T10:54:02.647Z,52.69
2018-05-15T10:55:55.481Z,51.61
2018-05-15T10:56:55.544Z,51.61
2018-05-15T10:58:48.249Z,52.19
2018-05-15T10:59:48.145Z,52.57
2018-05-15T11:01:40.987Z,53.34
2018-05-15T11:02:40.899Z,53.05
2018-05-15T11:04:33.771Z,53.89
2018-05-15T11:05:33.674Z,54.40
2018-05-15T11:07:26.484Z,52.35
2018-05-15T11:08:26.392Z,51.77
2018-05-15T11:10:19.274Z,51.97
2018-05-15T11:11:19.136Z,52.83
2018-05-15T11:13:11.989Z,52.19
2018-05-15T11:14:11.933Z,53.53
2018-05-15T11:16:04.756Z,53.34
2018-05-15T11:17:04.654Z,52.69
2018-05-15T11:18:57.484Z,51.15
2018-05-15T11:19:57.389Z,51.15
2018-05-15T11:21:50.259Z,47.80
2018-05-15T11:22:50.139Z,48.28
2018-05-15T11:24:43.153Z,50.89
2018-05-15T11:25:43.404Z,51.25
2018-05-15T11:27:35.746Z,50.38
2018-05-15T11:28:35.641Z,50.67
2018-05-15T11:30:28.588Z,50.38
2018-05-15T11:31:28.384Z,49.51
2018-05-15T11:33:21.232Z,48.74
2018-05-15T11:34:21.156Z,49.22
2018-05-15T11:36:14.400Z,49.32
2018-05-15T11:37:14.335Z,49.32
2018-05-15T11:39:07.144Z,48.83
2018-05-15T11:40:07.061Z,49.60
2018-05-15T11:41:59.910Z,49.02
2018-05-15T11:42:59.789Z,49.12
2018-05-15T11:44:53.149Z,48.06
2018-05-15T11:45:52.556Z,48.06
2018-05-15T11:47:45.633Z,48.71
2018-05-15T11:48:45.716Z,48.83
2018-05-15T11:50:39.275Z,48.13
2018-05-15T11:51:38.742Z,49.10
2018-05-15T11:53:30.910Z,49.00
2018-05-15T11:54:30.807Z,48.52
2018-05-15T11:56:23.695Z,49.22
2018-05-15T11:57:23.552Z,48.74
2018-05-15T11:59:16.398Z,48.35
2018-05-15T12:00:16.357Z,47.87
2018-05-15T12:02:09.146Z,47.27
2018-05-15T12:03:09.065Z,47.94
2018-05-15T12:05:01.897Z,48.35
2018-05-15T12:06:01.802Z,48.25
2018-05-15T12:07:54.673Z,49.02
2018-05-15T12:08:54.628Z,49.22
2018-05-15T12:10:47.403Z,47.50
2018-05-15T12:11:47.304Z,49.15
2018-05-15T12:13:40.145Z,47.60
2018-05-15T12:14:40.044Z,46.66
2018-05-15T12:16:32.901Z,46.85
2018-05-15T12:17:32.792Z,45.91
2018-05-15T12:19:25.660Z,47.77
2018-05-15T12:20:25.559Z,44.96
2018-05-15T12:22:18.402Z,44.87
2018-05-15T12:23:18.310Z,43.30
2018-05-15T12:25:12.557Z,43.40
2018-05-15T12:26:11.049Z,43.28
2018-05-15T12:28:03.958Z,43.49
2018-05-15T12:29:03.796Z,43.80
2018-05-15T12:30:56.644Z,41.27
2018-05-15T12:31:56.551Z,42.55
2018-05-15T12:33:49.401Z,44.19
2018-05-15T12:34:49.299Z,42.83
2018-05-15T12:36:42.168Z,41.00
2018-05-15T12:37:42.055Z,39.94
2018-05-15T12:39:34.880Z,40.11
2018-05-15T12:40:34.791Z,40.88
2018-05-15T12:42:27.667Z,41.44
2018-05-15T12:43:27.560Z,40.86
2018-05-15T12:45:20.413Z,41.35
2018-05-15T12:46:20.290Z,42.50
2018-05-15T12:48:13.174Z,42.72
2018-05-15T12:49:13.043Z,42.62
2018-05-15T12:51:05.908Z,42.82
2018-05-15T12:52:05.803Z,42.72
2018-05-15T12:53:59.224Z,43.28
2018-05-15T12:54:59.058Z,42.41
2018-05-15T12:56:51.902Z,42.79
2018-05-15T12:57:51.810Z,43.08
2018-05-15T12:59:44.658Z,43.08
2018-05-15T13:00:44.560Z,42.68
2018-05-15T13:02:37.448Z,43.54
2018-05-15T13:03:37.313Z,44.42
2018-05-15T13:05:30.135Z,45.00
2018-05-15T13:06:30.052Z,44.32
2018-05-15T13:08:22.919Z,44.34
2018-05-15T13:09:22.805Z,43.84
2018-05-15T13:11:15.650Z,44.15
2018-05-15T13:12:15.541Z,43.28
2018-05-15T13:14:08.453Z,43.47
2018-05-15T13:15:08.307Z,43.18
2018-05-15T13:17:01.158Z,43.85
2018-05-15T13:18:01.043Z,43.78
2018-05-15T13:19:53.908Z,43.76
2018-05-15T13:20:53.826Z,43.35
2018-05-15T13:22:46.656Z,44.12
2018-05-15T13:23:46.538Z,44.32
2018-05-15T13:25:39.390Z,44.70
2018-05-15T13:26:39.309Z,44.32
2018-05-15T13:28:32.151Z,44.92
2018-05-15T13:29:32.039Z,44.24
2018-05-15T13:31:25.404Z,44.32
2018-05-15T13:32:25.316Z,45.18
2018-05-15T13:34:18.160Z,46.06
2018-05-15T13:35:18.079Z,46.64
2018-05-15T13:37:10.906Z,45.75
2018-05-15T13:38:10.845Z,45.94
2018-05-15T13:40:03.675Z,45.76
2018-05-15T13:41:03.663Z,46.15
2018-05-15T13:42:56.400Z,45.98
2018-05-15T13:43:56.298Z,45.28
2018-05-15T13:45:49.200Z,45.59
2018-05-15T13:46:49.058Z,46.08
2018-05-15T13:48:41.890Z,44.07
2018-05-15T13:49:42.311Z,45.62
2018-05-15T13:51:34.652Z,45.54
2018-05-15T13:52:34.549Z,45.42
2018-05-15T13:54:27.409Z,46.58
2018-05-15T13:55:27.312Z,45.23
2018-05-15T13:57:20.145Z,45.23
2018-05-15T13:58:20.067Z,45.11
2018-05-15T14:00:12.914Z,45.98
2018-05-15T14:01:12.804Z,46.75
2018-05-15T14:03:05.647Z,49.15
2018-05-15T14:04:05.567Z,48.76
2018-05-15T14:05:58.441Z,48.44
2018-05-15T14:06:58.310Z,48.35
2018-05-15T14:08:51.561Z,48.16
2018-05-15T14:09:51.469Z,49.15
2018-05-15T14:11:44.311Z,48.86
2018-05-15T14:12:44.250Z,48.37
2018-05-15T14:14:37.058Z,49.34
2018-05-15T14:15:36.977Z,49.34
2018-05-15T14:17:30.040Z,50.81
2018-05-15T14:18:29.921Z,49.95
2018-05-15T14:20:22.782Z,47.24
2018-05-15T14:21:22.672Z,48.39
2018-05-15T14:23:15.531Z,48.11
2018-05-15T14:24:15.435Z,48.21
2018-05-15T14:26:08.278Z,47.94
2018-05-15T14:27:08.164Z,47.72
2018-05-15T14:29:01.604Z,47.91
2018-05-15T14:30:01.527Z,46.95
2018-05-15T14:31:54.395Z,47.14
2018-05-15T14:32:54.295Z,48.01
2018-05-15T14:34:47.204Z,47.81
2018-05-15T14:35:47.035Z,47.53
2018-05-15T14:37:39.904Z,48.32
2018-05-15T14:38:39.814Z,47.65
2018-05-15T14:40:32.607Z,47.58
2018-05-15T14:41:32.560Z,46.49
2018-05-15T14:43:25.416Z,46.37
2018-05-15T14:44:25.284Z,46.27
2018-05-15T14:46:18.138Z,47.63
2018-05-15T14:47:18.057Z,47.63
2018-05-15T14:49:11.941Z,46.85
2018-05-15T14:50:11.822Z,47.43
2018-05-15T14:52:04.677Z,46.37
2018-05-15T14:53:04.542Z,46.95
2018-05-15T14:54:57.405Z,47.81
2018-05-15T14:55:57.297Z,48.11
2018-05-15T14:57:50.192Z,49.07
2018-05-15T14:58:50.043Z,47.33
2018-05-15T15:00:42.889Z,46.66
2018-05-15T15:01:42.811Z,46.08
2018-05-15T15:03:35.657Z,46.34
2018-05-15T15:04:35.566Z,46.54
2018-05-15T15:06:28.387Z,47.31
2018-05-15T15:07:28.288Z,47.80
2018-05-15T15:09:21.140Z,47.80
2018-05-15T15:10:21.066Z,46.64
2018-05-15T15:12:13.913Z,47.60
2018-05-15T15:13:13.795Z,47.22
2018-05-15T15:15:06.653Z,46.06
2018-05-15T15:16:06.605Z,46.44
2018-05-15T15:17:59.404Z,47.02
2018-05-15T15:18:59.491Z,47.41
2018-05-15T15:20:52.160Z,48.08
2018-05-15T15:21:52.075Z,48.57
2018-05-15T15:23:44.946Z,48.35
2018-05-15T15:24:44.913Z,47.96
2018-05-15T15:26:37.653Z,48.44
2018-05-15T15:27:37.598Z,48.44
2018-05-15T15:29:30.378Z,48.37
2018-05-15T15:30:30.288Z,47.50
2018-05-15T15:32:23.142Z,47.43
2018-05-15T15:33:23.051Z,47.72
2018-05-15T15:35:16.509Z,47.65
2018-05-15T15:36:15.890Z,47.28
2018-05-15T15:38:12.135Z,47.38
2018-05-15T15:39:12.163Z,48.16
2018-05-15T15:41:05.625Z,45.47
2018-05-15T15:42:05.594Z,46.61
2018-05-15T15:43:58.337Z,45.28
2018-05-15T15:44:58.239Z,45.68
2018-05-15T15:46:51.120Z,44.43
2018-05-15T15:47:51.057Z,45.18
2018-05-15T15:49:43.844Z,42.88
2018-05-15T15:50:43.739Z,42.61
2018-05-15T15:52:36.643Z,40.96
2018-05-15T15:53:36.518Z,40.86
2018-05-15T15:55:29.327Z,41.87
2018-05-15T15:56:29.255Z,42.65
2018-05-15T15:58:22.198Z,43.13
2018-05-15T15:59:22.150Z,42.83
2018-05-15T16:01:14.944Z,43.99
2018-05-15T16:02:14.837Z,44.36
2018-05-15T16:04:07.705Z,44.67
2018-05-15T16:05:07.589Z,43.73
2018-05-15T16:07:00.418Z,42.32
2018-05-15T16:08:00.381Z,42.76
2018-05-15T16:09:53.251Z,44.87
2018-05-15T16:10:53.103Z,44.40
2018-05-15T16:12:45.938Z,44.77
2018-05-15T16:13:45.847Z,44.56
2018-05-15T16:15:38.734Z,45.54
2018-05-15T16:16:38.603Z,45.45
2018-05-15T16:18:31.423Z,45.25
2018-05-15T16:19:31.337Z,45.95
2018-05-15T16:21:24.249Z,46.66
2018-05-15T16:22:24.096Z,46.85
2018-05-15T16:24:16.950Z,46.61
2018-05-15T16:25:16.842Z,46.63
2018-05-15T16:27:09.712Z,45.25
2018-05-15T16:28:09.600Z,46.90
2018-05-15T16:30:02.432Z,47.77
2018-05-15T16:31:02.353Z,46.78
2018-05-15T16:32:55.241Z,47.33
2018-05-15T16:33:55.859Z,48.08
2018-05-15T16:35:48.067Z,48.93
2018-05-15T16:36:47.843Z,49.41
2018-05-15T16:38:40.702Z,50.54
2018-05-15T16:39:40.595Z,50.54
2018-05-15T16:41:33.469Z,50.86
2018-05-15T16:42:33.355Z,51.34
2018-05-15T16:44:26.192Z,52.09
2018-05-15T16:45:26.103Z,52.19
2018-05-15T16:47:19.045Z,51.68
2018-05-15T16:48:18.835Z,52.16
2018-05-15T16:50:13.129Z,51.00
2018-05-15T16:51:13.014Z,50.81
2018-05-15T16:53:05.859Z,50.62
2018-05-15T16:54:05.760Z,51.00
2018-05-15T16:55:58.602Z,50.78
2018-05-15T16:56:58.524Z,49.63
2018-05-15T16:58:51.413Z,49.63
2018-05-15T16:59:51.273Z,49.63
2018-05-15T17:01:44.500Z,49.91
2018-05-15T17:02:44.440Z,49.82
2018-05-15T17:04:37.274Z,49.79
2018-05-15T17:05:37.171Z,49.99
2018-05-15T17:07:30.001Z,50.76
2018-05-15T17:08:29.914Z,51.05
2018-05-15T17:10:22.793Z,52.37
2018-05-15T17:11:22.661Z,52.66
2018-05-15T17:13:15.545Z,53.62
2018-05-15T17:14:15.405Z,54.20
2018-05-15T17:16:08.246Z,55.07
2018-05-15T17:17:08.158Z,55.23
2018-05-15T17:19:01.049Z,55.23
2018-05-15T17:20:00.927Z,55.23
2018-05-15T17:21:53.765Z,54.05
2018-05-15T17:22:53.664Z,53.86
2018-05-15T17:24:46.533Z,54.72
2018-05-15T17:25:46.411Z,55.94
2018-05-15T17:27:39.242Z,56.71
2018-05-15T17:28:39.209Z,57.77
2018-05-15T17:30:32.073Z,62.55
2018-05-15T17:31:31.978Z,63.22
2018-05-15T17:33:24.764Z,66.16
2018-05-15T17:34:24.663Z,69.91
2018-05-15T17:36:17.544Z,77.98
2018-05-15T17:37:17.432Z,87.25
2018-05-15T17:39:10.812Z,96.27
2018-05-15T17:40:10.676Z,99.99
2018-05-15T17:42:03.576Z,99.99
2018-05-15T17:43:03.413Z,99.99
2018-05-15T17:44:56.289Z,99.99
2018-05-15T17:45:56.181Z,99.99
2018-05-15T17:47:49.096Z,99.29
2018-05-15T17:48:48.919Z,94.21
2018-05-15T17:50:41.792Z,96.42
2018-05-15T17:51:41.666Z,90.67
2018-05-15T17:53:34.520Z,92.49
2018-05-15T17:54:34.416Z,89.32
2018-05-15T17:56:27.265Z,88.17
2018-05-15T17:57:27.188Z,88.46
2018-05-15T17:59:21.116Z,85.68
2018-05-15T18:00:20.841Z,91.34
2018-05-15T18:02:13.923Z,79.60
2018-05-15T18:03:13.787Z,77.21
2018-05-15T18:05:06.642Z,72.13
2018-05-15T18:06:06.538Z,79.99
2018-05-15T18:07:59.810Z,74.72
2018-05-15T18:08:59.711Z,75.58
2018-05-15T18:10:52.547Z,75.48
2018-05-15T18:11:52.451Z,69.83
2018-05-15T18:13:45.303Z,70.37
2018-05-15T18:14:45.265Z,66.45
2018-05-15T18:16:38.039Z,63.10
2018-05-15T18:17:37.953Z,58.79
2018-05-15T18:19:30.821Z,60.89
2018-05-15T18:20:30.722Z,57.26
2018-05-15T18:22:23.572Z,53.23
2018-05-15T18:23:23.449Z,51.42
2018-05-15T18:25:16.302Z,52.75
2018-05-15T18:26:16.229Z,53.81
2018-05-15T18:28:08.962Z,51.22
2018-05-15T18:29:08.889Z,49.98
2018-05-15T18:31:01.697Z,38.78
2018-05-15T18:32:01.595Z,41.65